Time;durP1;ratioP1;P1;durP2;ratioP2;P2;SDS_P1;SDS_P2;PMS_P1;PMS_P2;Temp;Humidity;BMP_temperature;BMP_pressure;BME280_temperature;BME280_humidity;BME280_pressure;Samples;Min_cycle;Max_cycle;Signal;HPM_P1;HPM_P2
2021/11/09 00:02:22;;;;;;;23.60;14.35;;;18.30;99.90;;;;;;5121204;27;20054;-61
2021/11/09 00:04:53;;;;;;;27.30;14.32;;;18.30;99.90;;;;;;5119576;27;20043;-61
2021/11/09 00:09:58;;;;;;;26.35;16.15;;;18.30;99.90;;;;;;5124696;27;20063;-61
2021/11/09 00:12:40;;;;;;;27.17;16.13;;;18.30;99.90;;;;;;5118444;27;20097;-61
2021/11/09 00:15:10;;;;;;;32.00;16.95;;;18.20;99.90;;;;;;5120104;27;20122;-61
2021/11/09 00:17:38;;;;;;;38.15;17.08;;;18.20;99.90;;;;;;5126655;27;20051;-61
2021/11/09 00:20:09;;;;;;;33.65;17.60;;;18.20;99.90;;;;;;5124938;27;20063;-61
2021/11/09 00:22:38;;;;;;;30.00;14.88;;;18.20;99.90;;;;;;5116696;27;20039;-61
2021/11/09 00:25:07;;;;;;;27.85;17.02;;;18.20;99.90;;;;;;5114237;27;20513;-61
2021/11/09 00:27:35;;;;;;;31.95;15.02;;;18.20;99.90;;;;;;5115465;27;20432;-61
2021/11/09 00:30:04;;;;;;;27.50;16.40;;;18.20;99.90;;;;;;5112326;27;20213;-62
2021/11/09 00:32:32;;;;;;;32.53;15.38;;;18.30;99.90;;;;;;5101077;27;20043;-61
2021/11/09 00:35:00;;;;;;;28.50;15.10;;;18.30;99.90;;;;;;5112802;27;20584;-61
2021/11/09 00:37:28;;;;;;;26.05;14.75;;;18.30;99.90;;;;;;5110831;27;20176;-61
2021/11/09 00:39:55;;;;;;;26.75;16.20;;;18.30;99.90;;;;;;5111401;27;20043;-60
2021/11/09 00:42:23;;;;;;;21.83;13.75;;;18.30;99.90;;;;;;5124286;27;20502;-61
2021/11/09 00:44:51;;;;;;;26.60;13.77;;;18.30;99.90;;;;;;5125464;27;20046;-62
2021/11/09 00:47:18;;;;;;;29.88;14.57;;;18.20;99.90;;;;;;5122476;27;20055;-61
2021/11/09 00:49:46;;;;;;;27.90;14.85;;;18.20;99.90;;;;;;5117829;27;20039;-61
2021/11/09 00:52:14;;;;;;;34.92;16.83;;;18.20;99.90;;;;;;5121276;27;20039;-60
2021/11/09 00:54:41;;;;;;;29.02;16.27;;;18.20;99.90;;;;;;5101378;27;20047;-60
2021/11/09 00:57:09;;;;;;;28.60;14.13;;;18.30;99.90;;;;;;5117664;27;20097;-61
2021/11/09 00:59:37;;;;;;;30.38;14.93;;;18.30;99.90;;;;;;5123796;28;20070;-60
2021/11/09 01:02:06;;;;;;;23.50;13.90;;;18.30;99.90;;;;;;5114093;28;20143;-61
2021/11/09 01:04:34;;;;;;;30.08;16.92;;;18.40;99.90;;;;;;5098108;28;20069;-61
2021/11/09 01:07:04;;;;;;;22.70;13.50;;;18.30;99.90;;;;;;5115070;28;20492;-62
2021/11/09 01:09:31;;;;;;;25.70;14.43;;;18.30;99.90;;;;;;5081243;28;20059;-61
2021/11/09 01:11:59;;;;;;;30.33;16.70;;;18.40;99.90;;;;;;5122967;27;20043;-61
2021/11/09 01:14:27;;;;;;;21.42;14.23;;;18.40;99.90;;;;;;5119583;27;20043;-60
2021/11/09 01:16:55;;;;;;;27.92;15.48;;;18.40;99.90;;;;;;5106712;27;20044;-61
2021/11/09 01:19:23;;;;;;;29.90;14.85;;;18.40;99.90;;;;;;5117095;27;20132;-60
2021/11/09 01:21:51;;;;;;;23.48;14.07;;;18.40;99.90;;;;;;5126622;27;20063;-61
2021/11/09 01:24:19;;;;;;;29.90;13.50;;;18.40;99.90;;;;;;5129929;27;20122;-60
2021/11/09 01:26:47;;;;;;;20.83;13.82;;;18.30;99.90;;;;;;5115950;28;20039;-60
2021/11/09 01:29:15;;;;;;;27.55;14.85;;;18.30;99.90;;;;;;5116359;28;20471;-60
2021/11/09 01:31:43;;;;;;;26.80;16.40;;;18.30;99.90;;;;;;5116393;28;20047;-61
2021/11/09 01:34:11;;;;;;;35.78;17.75;;;18.30;99.90;;;;;;5082595;28;20047;-61
2021/11/09 01:36:39;;;;;;;30.65;18.85;;;18.30;99.90;;;;;;5116459;28;20054;-60
2021/11/09 01:39:08;;;;;;;30.65;16.45;;;18.30;99.90;;;;;;5082713;28;20579;-61
2021/11/09 01:41:36;;;;;;;29.42;17.15;;;18.30;99.90;;;;;;5117602;28;20164;-60
2021/11/09 01:44:04;;;;;;;34.97;17.10;;;18.30;99.90;;;;;;5116348;28;20043;-61
2021/11/09 01:46:33;;;;;;;24.63;15.35;;;18.30;99.90;;;;;;5116240;28;20383;-60
2021/11/09 01:49:01;;;;;;;30.17;17.17;;;18.20;99.90;;;;;;5116127;28;20032;-60
2021/11/09 01:51:29;;;;;;;34.00;17.02;;;18.20;99.90;;;;;;5082539;28;20055;-60
2021/11/09 01:53:58;;;;;;;36.65;17.83;;;18.20;99.90;;;;;;5115968;28;20547;-61
2021/11/09 01:56:28;;;;;;;32.45;16.33;;;18.20;99.90;;;;;;5116284;28;20552;-60
2021/11/09 01:58:56;;;;;;;30.02;14.63;;;18.20;99.90;;;;;;5099104;28;20439;-61
2021/11/09 02:01:26;;;;;;;26.63;16.33;;;18.20;99.90;;;;;;5130087;27;20092;-61
2021/11/09 02:03:57;;;;;;;35.80;18.50;;;18.20;99.90;;;;;;5136215;27;20124;-60
2021/11/09 02:06:26;;;;;;;29.88;17.00;;;18.20;99.90;;;;;;5136380;27;20046;-61
2021/11/09 02:09:01;;;;;;;24.77;16.77;;;18.20;99.90;;;;;;5136655;27;20039;-60
2021/11/09 02:11:29;;;;;;;33.00;15.98;;;18.20;99.90;;;;;;5137709;27;20127;-61
2021/11/09 02:13:57;;;;;;;26.52;16.33;;;18.20;99.90;;;;;;5119296;27;20059;-60
2021/11/09 02:16:25;;;;;;;25.40;16.15;;;18.20;99.90;;;;;;5119236;27;20437;-60
2021/11/09 02:18:53;;;;;;;27.15;16.65;;;18.20;99.90;;;;;;5136126;27;20070;-60
2021/11/09 02:21:21;;;;;;;33.92;17.30;;;18.10;99.90;;;;;;5135627;27;20047;-61
2021/11/09 02:23:49;;;;;;;29.85;17.45;;;18.20;99.90;;;;;;5119410;27;20058;-60
2021/11/09 02:26:20;;;;;;;27.77;17.42;;;18.20;99.90;;;;;;5136390;27;20125;-61
2021/11/09 02:28:50;;;;;;;38.80;17.45;;;18.20;99.90;;;;;;5136168;27;20092;-60
2021/11/09 02:31:18;;;;;;;30.27;17.73;;;18.20;99.90;;;;;;5137066;27;20084;-61
2021/11/09 02:33:46;;;;;;;33.08;18.33;;;18.20;99.90;;;;;;5101975;27;20073;-61
2021/11/09 02:36:15;;;;;;;34.42;19.10;;;18.20;99.90;;;;;;5135635;27;20092;-60
2021/11/09 02:38:43;;;;;;;32.80;18.23;;;18.20;99.90;;;;;;5118938;27;20042;-60
2021/11/09 02:41:10;;;;;;;31.48;18.35;;;18.10;99.90;;;;;;5118840;27;20070;-61
2021/11/09 02:43:38;;;;;;;35.28;20.05;;;18.10;99.90;;;;;;5135732;27;20393;-60
2021/11/09 02:48:57;;;;;;;35.85;18.27;;;18.20;99.90;;;;;;5137171;27;20058;-60
2021/11/09 02:57:05;;;;;;;42.78;16.08;;;18.20;99.90;;;;;;5101484;27;20046;-60
2021/11/09 03:04:49;;;;;;;27.25;15.10;;;18.30;99.90;;;;;;5136479;27;20039;-60
2021/11/09 03:12:38;;;;;;;31.20;16.33;;;18.30;99.90;;;;;;5136550;27;20134;-60
2021/11/09 03:15:09;;;;;;;32.55;18.40;;;18.30;99.90;;;;;;5135116;27;20433;-61
2021/11/09 03:17:43;;;;;;;25.67;15.32;;;18.30;99.90;;;;;;5136318;27;20047;-61
2021/11/09 03:20:26;;;;;;;31.42;15.80;;;18.30;99.90;;;;;;5136390;27;20134;-61
2021/11/09 03:39:59;;;;;;;29.25;16.98;;;18.30;99.90;;;;;;5118206;27;20389;-61
2021/11/09 03:45:33;;;;;;;25.73;16.15;;;18.30;99.90;;;;;;5075894;28;20281;-61
2021/11/09 03:48:13;;;;;;;24.05;16.20;;;18.30;99.90;;;;;;5101675;27;20100;-61
2021/11/09 03:50:42;;;;;;;23.55;15.05;;;18.30;99.90;;;;;;5117584;27;20481;-60
2021/11/09 03:53:23;;;;;;;29.95;14.70;;;18.40;99.90;;;;;;5135440;27;20054;-61
2021/11/09 04:04:13;;;;;;;27.73;15.73;;;18.50;99.90;;;;;;5134811;27;20043;-60
2021/11/09 04:06:32;;;;;;;32.92;14.63;;;18.40;99.90;;;;;;5127041;27;20055;-61
2021/11/09 04:16:45;;;;;;;26.90;15.68;;;18.30;99.90;;;;;;5135217;27;20045;-60
2021/11/09 04:29:50;;;;;;;30.45;16.08;;;18.30;99.90;;;;;;5135009;27;20039;-60
2021/11/09 05:10:24;;;;;;;23.40;13.70;;;18.60;99.90;;;;;;5134537;28;20524;-60
2021/11/09 05:12:52;;;;;;;22.27;12.90;;;18.60;99.90;;;;;;5133027;28;20071;-61
2021/11/09 05:15:19;;;;;;;30.05;15.57;;;18.60;99.90;;;;;;5134424;28;20038;-61
2021/11/09 05:17:47;;;;;;;23.90;14.27;;;18.60;99.90;;;;;;5133447;28;20454;-60
2021/11/09 05:20:15;;;;;;;34.38;16.50;;;18.60;99.90;;;;;;5133418;28;20043;-60
2021/11/09 05:22:45;;;;;;;24.40;13.32;;;18.60;99.90;;;;;;5133183;28;20130;-61
2021/11/09 05:25:13;;;;;;;28.55;15.15;;;18.60;99.90;;;;;;5099151;28;20107;-60
2021/11/09 05:27:41;;;;;;;26.15;13.23;;;18.60;99.90;;;;;;5132686;28;20050;-60
2021/11/09 05:30:09;;;;;;;24.60;12.60;;;18.60;99.90;;;;;;5133092;28;20468;-60
2021/11/09 05:32:37;;;;;;;22.38;13.32;;;18.50;99.90;;;;;;5132678;28;20043;-60
2021/11/09 05:35:06;;;;;;;26.98;15.02;;;18.50;99.90;;;;;;5133042;28;20070;-61
2021/11/09 05:37:45;;;;;;;26.60;15.02;;;18.50;99.90;;;;;;5134242;28;20075;-60
2021/11/09 05:40:13;;;;;;;25.80;14.63;;;18.50;99.90;;;;;;5132934;28;20054;-61
2021/11/09 05:42:41;;;;;;;22.65;13.75;;;18.50;99.90;;;;;;5099412;28;20047;-60
2021/11/09 05:45:09;;;;;;;21.95;13.63;;;18.50;99.90;;;;;;5134301;28;20405;-61
2021/11/09 05:47:37;;;;;;;22.70;14.77;;;18.40;99.90;;;;;;5132428;28;20477;-61
2021/11/09 05:50:06;;;;;;;23.00;14.88;;;18.40;99.90;;;;;;5115940;28;20043;-61
2021/11/09 05:52:33;;;;;;;23.73;13.98;;;18.50;99.90;;;;;;5132732;28;20584;-61
2021/11/09 05:55:01;;;;;;;24.77;13.50;;;18.50;99.90;;;;;;5134174;28;20050;-60
2021/11/09 05:57:28;;;;;;;26.88;15.93;;;18.50;99.90;;;;;;5136477;27;20077;-60
2021/11/09 05:59:56;;;;;;;23.30;14.98;;;18.40;99.90;;;;;;5119497;27;20043;-61
2021/11/09 06:02:24;;;;;;;26.38;14.05;;;18.40;99.90;;;;;;5137748;27;20047;-61
2021/11/09 06:04:54;;;;;;;29.75;15.20;;;18.40;99.90;;;;;;5136721;27;20043;-60
2021/11/09 06:07:22;;;;;;;25.98;13.55;;;18.40;99.90;;;;;;5119516;27;20109;-61
2021/11/09 06:09:49;;;;;;;22.70;14.40;;;18.40;99.90;;;;;;5136433;27;20042;-61
2021/11/09 06:12:17;;;;;;;22.33;14.60;;;18.40;99.90;;;;;;5137614;27;20043;-60
2021/11/09 06:14:45;;;;;;;26.00;15.27;;;18.50;99.90;;;;;;5136217;27;20493;-61
2021/11/09 06:17:13;;;;;;;26.55;15.60;;;18.50;99.90;;;;;;5135895;27;20050;-61
2021/11/09 06:19:41;;;;;;;27.13;15.27;;;18.60;99.90;;;;;;5118771;27;20150;-60
2021/11/09 06:22:08;;;;;;;28.75;14.43;;;18.60;99.90;;;;;;5119514;27;20043;-61
2021/11/09 06:24:36;;;;;;;26.08;14.15;;;18.60;99.90;;;;;;5119511;27;20142;-60
2021/11/09 06:27:04;;;;;;;23.55;15.15;;;18.60;99.90;;;;;;5135980;27;20553;-61
2021/11/09 06:29:32;;;;;;;23.58;14.38;;;18.60;99.90;;;;;;5119303;27;20051;-60
2021/11/09 06:32:00;;;;;;;23.92;14.65;;;18.50;99.90;;;;;;5118685;27;20118;-61
2021/11/09 06:34:27;;;;;;;24.13;14.43;;;18.60;99.90;;;;;;5137156;27;20560;-61
2021/11/09 06:36:55;;;;;;;25.63;15.00;;;18.60;99.90;;;;;;5119049;27;20062;-61
2021/11/09 06:39:23;;;;;;;27.40;16.20;;;18.70;99.90;;;;;;5135844;27;20047;-61
2021/11/09 06:41:51;;;;;;;27.48;16.20;;;18.70;99.90;;;;;;5136031;27;20058;-61
2021/11/09 06:44:19;;;;;;;25.50;15.30;;;18.70;99.90;;;;;;5135658;27;20039;-61
2021/11/09 06:46:47;;;;;;;26.40;15.25;;;18.60;99.90;;;;;;5135633;27;20047;-60
2021/11/09 06:49:15;;;;;;;23.27;13.73;;;18.70;99.90;;;;;;5135525;27;20142;-61
2021/11/09 06:51:43;;;;;;;27.25;14.60;;;18.70;99.90;;;;;;5135876;27;20439;-60
2021/11/09 06:54:11;;;;;;;19.52;14.48;;;18.70;99.90;;;;;;5135592;27;20039;-61
2021/11/09 06:56:39;;;;;;;37.42;15.70;;;18.70;99.90;;;;;;5118651;27;20051;-61
2021/11/09 06:59:08;;;;;;;30.85;14.85;;;18.70;99.90;;;;;;5118417;27;20047;-61
2021/11/09 07:01:36;;;;;;;30.35;16.30;;;18.70;99.90;;;;;;5101396;27;20054;-60
2021/11/09 07:04:03;;;;;;;24.00;13.80;;;18.70;99.90;;;;;;5118393;27;20046;-61
2021/11/09 07:06:31;;;;;;;25.50;15.32;;;18.70;99.90;;;;;;5118321;27;20043;-60
2021/11/09 07:08:58;;;;;;;26.08;13.30;;;18.80;99.90;;;;;;5134111;27;20047;-60
2021/11/09 07:11:26;;;;;;;23.73;15.50;;;18.80;99.90;;;;;;5136422;27;20474;-61
2021/11/09 07:13:55;;;;;;;29.67;15.02;;;18.80;99.90;;;;;;5118210;27;20058;-60
2021/11/09 07:16:24;;;;;;;31.35;16.60;;;18.80;99.90;;;;;;5135052;27;20047;-61
2021/11/09 07:18:56;;;;;;;26.85;15.20;;;18.80;99.90;;;;;;5118176;27;20051;-60
2021/11/09 07:21:24;;;;;;;28.35;16.88;;;18.80;99.90;;;;;;5135062;27;20076;-61
2021/11/09 07:23:51;;;;;;;22.95;14.80;;;18.80;99.90;;;;;;5136087;27;20050;-60
2021/11/09 07:26:19;;;;;;;24.05;15.68;;;18.80;99.90;;;;;;5136358;27;20088;-61
2021/11/09 07:28:46;;;;;;;26.95;14.43;;;18.80;99.90;;;;;;5134847;27;20126;-60
2021/11/09 07:31:16;;;;;;;24.95;13.45;;;18.90;99.90;;;;;;5135840;27;20036;-61
2021/11/09 07:33:45;;;;;;;25.65;14.10;;;18.90;99.90;;;;;;5117779;27;20040;-60
2021/11/09 07:36:13;;;;;;;23.98;15.68;;;18.90;99.90;;;;;;5134701;27;20039;-60
2021/11/09 07:38:41;;;;;;;30.85;15.07;;;18.90;99.90;;;;;;5134492;27;20058;-61
2021/11/09 07:41:08;;;;;;;27.67;15.60;;;18.90;99.90;;;;;;5134496;27;20061;-61
2021/11/09 07:43:37;;;;;;;24.83;15.40;;;18.90;99.90;;;;;;5134458;27;20043;-61
2021/11/09 07:46:05;;;;;;;34.17;18.25;;;18.90;99.90;;;;;;5134454;27;20036;-61
2021/11/09 07:48:33;;;;;;;30.52;14.77;;;18.90;99.90;;;;;;5135327;27;20055;-61
2021/11/09 07:51:01;;;;;;;25.27;15.40;;;18.90;99.90;;;;;;5135608;27;20074;-61
2021/11/09 07:53:37;;;;;;;25.77;16.70;;;18.90;99.90;;;;;;5117440;27;20834;-61
2021/11/09 08:01:17;;;;;;;27.63;16.15;;;19.00;99.90;;;;;;5134740;27;20043;-60
2021/11/09 08:06:21;;;;;;;24.55;15.18;;;19.00;99.90;;;;;;5135435;27;20427;-61
2021/11/09 08:11:19;;;;;;;29.77;15.90;;;19.00;99.90;;;;;;5134070;27;20035;-61
2021/11/09 08:13:50;;;;;;;25.35;16.35;;;19.00;99.90;;;;;;5133856;27;20043;-60
2021/11/09 08:16:18;;;;;;;32.22;16.92;;;19.00;99.90;;;;;;5117159;27;20507;-60
2021/11/09 08:18:46;;;;;;;29.50;17.02;;;19.00;99.90;;;;;;5133867;27;20051;-60
2021/11/09 08:21:14;;;;;;;33.50;17.95;;;19.10;99.90;;;;;;5133523;27;20430;-61
2021/11/09 08:23:47;;;;;;;25.88;16.60;;;19.20;99.90;;;;;;5134138;27;20051;-61
2021/11/09 08:26:22;;;;;;;36.97;19.00;;;19.20;99.90;;;;;;5135166;27;20039;-60
2021/11/09 08:28:51;;;;;;;27.70;16.95;;;19.20;99.90;;;;;;5134979;27;20096;-61
2021/11/09 08:31:22;;;;;;;34.05;16.67;;;19.40;99.90;;;;;;5134788;27;20039;-60
2021/11/09 08:33:52;;;;;;;23.85;14.60;;;19.30;99.90;;;;;;5133916;27;20041;-61
2021/11/09 08:36:29;;;;;;;24.02;15.48;;;19.40;99.90;;;;;;5116413;27;20053;-61
2021/11/09 08:39:03;;;;;;;30.58;17.13;;;19.40;99.90;;;;;;5135020;27;20450;-60
2021/11/09 08:41:46;;;;;;;27.88;15.10;;;19.40;99.90;;;;;;5133603;27;20067;-61
2021/11/09 08:44:18;;;;;;;31.95;15.70;;;19.40;99.90;;;;;;5133408;27;20058;-61
2021/11/09 08:46:53;;;;;;;29.15;15.20;;;19.40;99.90;;;;;;5134694;27;20130;-61
2021/11/09 08:49:23;;;;;;;27.80;16.20;;;19.50;99.90;;;;;;5116439;27;20047;-61
2021/11/09 08:51:52;;;;;;;21.60;14.30;;;19.50;99.90;;;;;;5116287;27;20043;-60
2021/11/09 08:54:31;;;;;;;22.25;14.35;;;19.60;99.90;;;;;;5116313;27;20054;-61
2021/11/09 09:05:01;;;;;;;24.10;13.93;;;19.60;99.90;;;;;;5134379;28;20481;-61
2021/11/09 09:07:29;;;;;;;25.92;15.45;;;19.70;99.90;;;;;;5133260;28;20042;-61
2021/11/09 09:09:57;;;;;;;27.77;12.35;;;19.80;99.90;;;;;;5133086;28;20038;-60
2021/11/09 09:12:28;;;;;;;18.98;12.90;;;19.90;99.90;;;;;;5116201;28;20092;-61
2021/11/09 09:14:58;;;;;;;22.73;12.88;;;20.00;99.90;;;;;;5134201;28;20489;-61
2021/11/09 09:17:26;;;;;;;29.13;13.68;;;20.10;99.90;;;;;;5132879;28;20054;-61
2021/11/09 09:19:58;;;;;;;20.33;12.15;;;20.10;99.90;;;;;;5134253;28;20063;-61
2021/11/09 09:22:31;;;;;;;38.40;14.88;;;20.20;99.90;;;;;;5134168;28;20382;-61
2021/11/09 09:25:08;;;;;;;19.20;10.07;;;20.20;99.90;;;;;;5132717;28;20039;-60
2021/11/09 09:30:39;;;;;;;21.80;11.13;;;20.20;99.90;;;;;;5134471;28;20039;-61
2021/11/09 09:55:46;;;;;;;16.88;9.43;;;21.10;99.90;;;;;;5121628;27;20104;-60
2021/11/09 09:58:13;;;;;;;18.98;10.43;;;21.30;99.90;;;;;;5136134;27;20043;-60
2021/11/09 10:00:43;;;;;;;14.77;9.75;;;21.20;99.90;;;;;;5136559;27;20045;-60
2021/11/09 10:03:10;;;;;;;17.52;9.30;;;21.20;99.90;;;;;;5136424;27;20067;-60
2021/11/09 10:05:41;;;;;;;33.28;11.70;;;21.20;99.90;;;;;;5137514;27;20070;-60
2021/11/09 10:08:15;;;;;;;18.17;11.25;;;21.20;99.90;;;;;;5137439;27;20043;-60
2021/11/09 10:10:45;;;;;;;15.80;9.30;;;21.20;99.90;;;;;;5137815;27;20035;-60
2021/11/09 10:13:20;;;;;;;20.67;11.23;;;21.20;99.90;;;;;;5136847;27;20446;-60
2021/11/09 10:15:57;;;;;;;15.88;9.07;;;21.40;99.90;;;;;;5137398;27;20043;-60
2021/11/09 10:18:25;;;;;;;17.05;9.15;;;21.50;99.90;;;;;;5137354;27;20366;-60
2021/11/09 10:20:58;;;;;;;17.42;9.88;;;21.50;99.90;;;;;;5135683;27;20118;-60
2021/11/09 10:23:30;;;;;;;15.23;9.68;;;21.50;99.90;;;;;;5136067;27;20070;-60
2021/11/09 10:26:18;;;;;;;17.73;9.57;;;21.30;99.90;;;;;;5135932;27;20039;-61
2021/11/09 10:28:46;;;;;;;17.15;10.15;;;21.30;99.90;;;;;;5118369;27;20404;-60
2021/11/09 10:31:15;;;;;;;18.70;10.60;;;21.10;99.90;;;;;;5137009;27;20481;-60
2021/11/09 10:33:50;;;;;;;16.88;10.20;;;21.00;99.90;;;;;;5135905;27;20036;-60
2021/11/09 10:36:21;;;;;;;20.92;10.98;;;20.90;99.90;;;;;;5135944;27;20069;-60
2021/11/09 10:38:49;;;;;;;17.48;9.93;;;20.90;99.90;;;;;;5135810;27;20067;-59
2021/11/09 10:41:17;;;;;;;23.20;11.65;;;21.10;99.90;;;;;;5135894;27;20472;-61
2021/11/09 10:43:50;;;;;;;28.63;12.40;;;21.20;99.90;;;;;;5134450;27;20054;-60
2021/11/09 10:46:29;;;;;;;15.50;10.02;;;21.30;99.90;;;;;;5135242;27;20039;-60
2021/11/09 10:48:58;;;;;;;17.35;10.82;;;21.30;99.90;;;;;;5135874;27;20039;-59
2021/11/09 10:52:05;;;;;;;25.90;10.30;;;21.40;99.90;;;;;;5135709;27;20090;-60
2021/11/09 10:55:18;;;;;;;18.88;9.95;;;21.50;99.90;;;;;;5136961;27;20049;-60
2021/11/09 11:06:12;;;;;;;21.80;10.70;;;21.70;99.90;;;;;;5117737;27;20108;-60
2021/11/09 11:08:42;;;;;;;18.75;9.63;;;21.60;99.90;;;;;;5133979;27;20069;-60
2021/11/09 11:11:23;;;;;;;20.58;9.73;;;21.60;99.90;;;;;;5133770;27;20035;-60
2021/11/09 11:14:12;;;;;;;15.02;10.18;;;21.60;99.90;;;;;;5134091;27;20051;-60
2021/11/09 11:16:45;;;;;;;19.65;9.98;;;21.40;99.90;;;;;;5133738;27;20342;-60
2021/11/09 11:19:27;;;;;;;18.85;9.32;;;21.30;99.90;;;;;;5133774;27;20055;-60
2021/11/09 11:21:56;;;;;;;21.40;10.27;;;21.30;99.90;;;;;;5135317;27;20122;-60
2021/11/09 11:24:24;;;;;;;15.73;10.10;;;21.20;99.90;;;;;;5134829;27;20066;-60
2021/11/09 11:26:54;;;;;;;18.98;11.20;;;21.30;99.90;;;;;;5133445;27;20439;-60
2021/11/09 11:29:24;;;;;;;23.15;8.90;;;21.40;99.90;;;;;;5132483;27;20047;-60
2021/11/09 11:31:55;;;;;;;17.05;9.80;;;21.50;99.90;;;;;;5134738;27;20046;-60
2021/11/09 11:34:26;;;;;;;22.00;10.15;;;21.60;99.90;;;;;;5134716;27;20039;-60
2021/11/09 11:36:54;;;;;;;17.98;11.05;;;21.60;99.90;;;;;;5133442;27;20035;-60
2021/11/09 11:39:25;;;;;;;18.20;10.40;;;21.70;99.90;;;;;;5134816;27;20138;-60
2021/11/09 11:42:00;;;;;;;23.15;10.93;;;21.80;99.90;;;;;;5134609;27;20512;-60
2021/11/09 11:44:31;;;;;;;14.95;10.00;;;21.80;99.90;;;;;;5134285;27;20458;-60
2021/11/09 11:47:26;;;;;;;15.80;9.52;;;21.80;99.90;;;;;;5132621;27;20058;-60
2021/11/09 11:49:58;;;;;;;16.67;10.73;;;21.80;99.90;;;;;;5116162;27;20043;-60
2021/11/09 11:52:27;;;;;;;17.83;9.45;;;21.80;99.90;;;;;;5134235;27;20043;-60
2021/11/09 11:55:15;;;;;;;16.02;8.00;;;22.00;99.90;;;;;;5133914;27;20035;-62
2021/11/09 11:57:44;;;;;;;26.33;11.93;;;22.10;99.90;;;;;;5117852;27;20047;-60
2021/11/09 12:00:32;;;;;;;18.08;9.50;;;22.20;99.90;;;;;;5132874;27;20039;-60
2021/11/09 12:03:04;;;;;;;18.67;9.23;;;22.20;99.90;;;;;;5133126;27;20051;-60
2021/11/09 12:05:36;;;;;;;12.77;9.02;;;22.30;99.90;;;;;;5133018;27;20039;-60
2021/11/09 12:08:05;;;;;;;24.17;9.88;;;22.20;99.90;;;;;;5133006;27;20046;-60
2021/11/09 12:10:46;;;;;;;19.05;11.05;;;22.10;99.90;;;;;;5132701;27;20393;-60
2021/11/09 12:13:16;;;;;;;22.35;10.10;;;22.10;99.90;;;;;;5132635;27;20043;-60
2021/11/09 12:16:00;;;;;;;16.17;9.80;;;22.10;99.90;;;;;;5132744;27;20043;-60
2021/11/09 12:18:28;;;;;;;16.20;9.38;;;22.10;99.90;;;;;;5115658;27;20043;-60
2021/11/09 12:21:08;;;;;;;15.95;9.70;;;22.20;99.90;;;;;;5135329;27;20070;-60
2021/11/09 12:23:37;;;;;;;17.80;10.27;;;22.10;99.90;;;;;;5135332;27;20113;-60
2021/11/09 12:26:39;;;;;;;18.23;10.27;;;22.10;99.90;;;;;;5134212;27;20067;-60
2021/11/09 12:29:36;;;;;;;15.65;9.85;;;22.30;99.90;;;;;;5133893;27;20039;-60
2021/11/09 12:32:22;;;;;;;17.75;9.63;;;22.30;99.90;;;;;;5133828;27;20479;-60
2021/11/09 12:35:06;;;;;;;19.10;8.90;;;22.20;99.90;;;;;;5134012;27;20047;-60
2021/11/09 12:37:37;;;;;;;15.10;8.98;;;22.10;99.90;;;;;;5133786;27;20073;-60
2021/11/09 12:40:24;;;;;;;17.35;8.63;;;22.00;99.90;;;;;;5132548;27;20401;-60
2021/11/09 12:43:12;;;;;;;17.75;9.27;;;21.80;99.90;;;;;;5133933;27;20503;-60
2021/11/09 12:46:07;;;;;;;18.65;11.02;;;21.80;99.90;;;;;;5133618;27;20171;-60
2021/11/09 12:48:52;;;;;;;17.88;7.63;;;21.80;99.90;;;;;;5121255;27;20043;-60
2021/11/09 12:51:31;;;;;;;15.77;8.70;;;21.70;99.90;;;;;;5131807;27;20047;-60
2021/11/09 12:54:08;;;;;;;11.45;7.82;;;21.80;99.90;;;;;;5131994;27;20131;-60
2021/11/09 12:56:37;;;;;;;14.40;8.93;;;21.80;99.90;;;;;;5132118;27;20071;-60
2021/11/09 12:59:20;;;;;;;16.05;8.90;;;21.90;99.90;;;;;;5132944;27;20050;-60
2021/11/09 13:01:54;;;;;;;19.92;9.52;;;21.90;99.90;;;;;;5133411;27;20059;-60
2021/11/09 13:04:32;;;;;;;15.27;8.73;;;21.90;99.90;;;;;;5132115;27;20072;-60
2021/11/09 13:09:46;;;;;;;12.98;8.13;;;21.90;99.90;;;;;;5133149;28;20088;-60
2021/11/09 13:12:18;;;;;;;17.45;8.25;;;21.90;99.90;;;;;;5131775;28;20039;-60
2021/11/09 13:14:50;;;;;;;17.15;9.60;;;21.90;99.90;;;;;;5131935;28;20501;-60
2021/11/09 13:17:54;;;;;;;13.10;7.65;;;21.90;99.90;;;;;;5133279;28;20036;-60
2021/11/09 13:20:34;;;;;;;15.77;10.15;;;22.00;99.90;;;;;;5114923;28;20066;-60
2021/11/09 13:23:02;;;;;;;13.93;8.40;;;21.90;99.90;;;;;;5132926;28;20044;-61
2021/11/09 13:25:55;;;;;;;20.77;10.07;;;21.80;99.90;;;;;;5132873;28;20568;-60
2021/11/09 13:28:36;;;;;;;14.10;8.20;;;21.70;99.90;;;;;;5131897;28;20051;-60
2021/11/09 13:31:07;;;;;;;14.32;8.55;;;21.70;99.90;;;;;;5114287;28;20054;-60
2021/11/09 13:33:39;;;;;;;16.40;8.60;;;21.70;99.90;;;;;;5132090;28;20052;-60
2021/11/09 13:36:07;;;;;;;19.65;8.38;;;21.60;99.90;;;;;;5133198;28;20044;-60
2021/11/09 13:38:39;;;;;;;15.00;8.65;;;21.60;99.90;;;;;;5134398;28;20040;-60
2021/11/09 13:41:18;;;;;;;18.88;8.30;;;21.50;99.90;;;;;;5134094;28;20047;-60
2021/11/09 13:44:00;;;;;;;15.18;8.82;;;21.50;99.90;;;;;;5133004;28;20047;-60
2021/11/09 13:46:33;;;;;;;17.35;10.00;;;21.50;99.90;;;;;;5132621;28;20122;-60
2021/11/09 13:49:07;;;;;;;17.30;9.95;;;21.60;99.90;;;;;;5133250;28;20051;-60
2021/11/09 13:51:47;;;;;;;14.18;8.52;;;21.60;99.90;;;;;;5133200;28;20096;-60
2021/11/09 13:54:24;;;;;;;15.23;7.95;;;21.60;99.90;;;;;;5115772;28;20138;-60
2021/11/09 13:56:54;;;;;;;13.45;8.43;;;21.60;99.90;;;;;;5133121;28;20047;-60
2021/11/09 13:59:35;;;;;;;15.30;9.27;;;21.60;99.90;;;;;;5133039;28;20054;-60
2021/11/09 14:18:23;;;;;;;12.95;8.13;;;21.40;99.90;;;;;;5135628;27;20042;-61
2021/11/09 14:20:53;;;;;;;23.70;8.88;;;21.40;99.90;;;;;;5137495;27;20378;-60
2021/11/09 14:23:34;;;;;;;17.08;8.98;;;21.40;99.90;;;;;;5137271;27;20084;-61
2021/11/09 14:26:23;;;;;;;16.70;9.13;;;21.40;99.90;;;;;;5136279;27;20043;-61
2021/11/09 14:28:57;;;;;;;19.90;9.32;;;21.40;99.90;;;;;;5137754;27;20039;-61
2021/11/09 14:31:32;;;;;;;19.70;10.32;;;21.40;99.90;;;;;;5119037;27;20435;-61
2021/11/09 14:34:13;;;;;;;20.95;9.70;;;21.50;99.90;;;;;;5137178;27;20088;-61
2021/11/09 14:36:42;;;;;;;18.23;8.95;;;21.40;99.90;;;;;;5135981;27;20469;-60
2021/11/09 14:39:24;;;;;;;15.90;8.60;;;21.40;99.90;;;;;;5137129;27;20047;-62
2021/11/09 14:42:11;;;;;;;17.90;11.20;;;21.20;99.90;;;;;;5137300;27;20055;-62
2021/11/09 14:45:06;;;;;;;19.40;10.55;;;21.30;99.90;;;;;;5136420;27;20051;-62
2021/11/09 14:47:42;;;;;;;18.25;9.23;;;21.10;99.90;;;;;;5135809;27;20047;-61
2021/11/09 14:50:21;;;;;;;20.17;8.90;;;21.10;99.90;;;;;;5136102;27;20036;-61
2021/11/09 14:52:51;;;;;;;16.35;8.20;;;21.10;99.90;;;;;;5135788;27;20050;-61
2021/11/09 14:55:26;;;;;;;19.67;8.63;;;21.10;99.90;;;;;;5135624;27;20039;-61
2021/11/09 14:57:55;;;;;;;22.00;10.57;;;21.10;99.90;;;;;;5137040;27;20471;-61
2021/11/09 15:00:23;;;;;;;15.57;9.77;;;21.10;99.90;;;;;;5134013;27;20301;-61
2021/11/09 15:03:04;;;;;;;14.68;9.75;;;21.10;99.90;;;;;;5135775;27;20035;-61
2021/11/09 15:05:34;;;;;;;20.95;8.90;;;21.10;99.90;;;;;;5135194;27;20490;-61
2021/11/09 15:10:48;;;;;;;23.77;10.25;;;21.10;99.90;;;;;;5136542;27;20053;-61
2021/11/09 15:27:29;;;;;;;21.77;11.23;;;21.00;99.90;;;;;;5134980;27;20092;-61
2021/11/09 15:32:27;;;;;;;26.38;12.98;;;21.00;99.90;;;;;;5134608;27;20049;-61
2021/11/09 15:35:08;;;;;;;21.50;13.00;;;20.90;99.90;;;;;;5136007;27;20126;-61
2021/11/09 15:37:39;;;;;;;28.88;14.20;;;20.90;99.90;;;;;;5136304;27;20047;-61
2021/11/09 15:40:11;;;;;;;24.17;12.95;;;20.90;99.90;;;;;;5134997;27;20051;-61
2021/11/09 15:42:41;;;;;;;23.30;12.40;;;20.90;99.90;;;;;;5135980;27;20370;-60
2021/11/09 15:45:10;;;;;;;19.05;10.70;;;20.80;99.90;;;;;;5134727;27;20047;-61
2021/11/09 15:47:38;;;;;;;23.83;11.35;;;20.80;99.90;;;;;;5135763;27;20192;-61
2021/11/09 15:50:07;;;;;;;18.45;11.73;;;20.80;99.90;;;;;;5135718;27;20054;-61
2021/11/09 15:52:36;;;;;;;21.35;11.38;;;20.70;99.90;;;;;;5134470;27;20096;-60
2021/11/09 15:55:05;;;;;;;18.10;11.82;;;20.70;99.90;;;;;;5135656;27;20092;-61
2021/11/09 15:57:34;;;;;;;28.73;12.20;;;20.70;99.90;;;;;;5135504;27;20035;-61
2021/11/09 16:00:04;;;;;;;21.85;12.10;;;20.60;99.90;;;;;;5117282;27;20389;-61
2021/11/09 16:02:34;;;;;;;21.48;13.23;;;20.60;99.90;;;;;;5135722;27;20439;-60
2021/11/09 16:05:04;;;;;;;21.70;13.00;;;20.60;99.90;;;;;;5135704;27;20034;-60
2021/11/09 16:07:32;;;;;;;24.88;13.07;;;20.60;99.90;;;;;;5134383;27;20078;-60
2021/11/09 16:10:00;;;;;;;19.98;10.73;;;20.50;99.90;;;;;;5135230;27;20096;-61